Time;durP1;ratioP1;P1;durP2;ratioP2;P2;SDS_P1;SDS_P2;PMS_P1;PMS_P2;Temp;Humidity;BMP_temperature;BMP_pressure;BME280_temperature;BME280_humidity;BME280_pressure;Samples;Min_cycle;Max_cycle;Signal;HPM_P1;HPM_P2
2022/09/08 10:39:49;;;;;;;8.25;6.60;;;;;;;;;;5880612;23;20016;-70
2022/09/08 10:42:37;;;;;;;9.03;6.90;;;;;;;;;;5214341;23;20052;-74
2022/09/08 10:45:16;;;;;;;8.77;6.50;;;;;;;;;;4915129;29;20056;-75
2022/09/08 10:48:01;;;;;;;7.93;6.13;;;;;;;;;;4917057;29;20057;-77
2022/09/08 10:50:31;;;;;;;8.82;7.82;;;;;;;;;;4917461;29;20061;-75
2022/09/08 10:53:04;;;;;;;8.93;6.97;;;;;;;;;;4917028;29;20621;-73
2022/09/08 10:55:33;;;;;;;8.43;6.88;;;;;;;;;;4917265;29;20064;-75
2022/09/08 10:58:19;;;;;;;7.35;6.35;;;;;;;;;;4916090;29;20084;-73
2022/09/08 11:01:08;;;;;;;9.70;6.47;;;;;;;;;;4914002;29;20057;-71
2022/09/08 11:03:35;;;;;;;4.65;4.25;;;;;;;;;;4915034;29;20461;-72
2022/09/08 11:06:15;;;;;;;9.57;4.85;;;;;;;;;;4916775;29;20113;-71
2022/09/08 11:08:53;;;;;;;8.75;4.43;;;;;;;;;;4916955;29;20064;-71
2022/09/08 11:11:22;;;;;;;9.15;3.70;;;;;;;;;;4904459;29;20108;-70
2022/09/08 11:13:59;;;;;;;7.45;3.50;;;;;;;;;;4916583;29;20057;-73
2022/09/08 11:16:32;;;;;;;6.25;3.95;;;;;;;;;;4916070;29;20052;-71
2022/09/08 11:19:31;;;;;;;7.05;3.70;;;;;;;;;;4917503;29;20100;-73
2022/09/08 11:22:14;;;;;;;7.53;3.70;;;;;;;;;;4911961;29;20080;-73
2022/09/08 11:24:56;;;;;;;7.32;3.30;;;;;;;;;;4912764;29;20113;-73
2022/09/08 11:27:31;;;;;;;7.55;3.67;;;;;;;;;;4916838;29;20064;-70
2022/09/08 11:30:11;;;;;;;10.52;3.50;;;;;;;;;;4916892;29;20425;-70
2022/09/08 11:32:46;;;;;;;7.40;3.53;;;;;;;;;;4916105;29;20052;-73
2022/09/08 11:35:27;;;;;;;9.88;3.95;;;;;;;;;;4918434;29;20067;-73
2022/09/08 11:37:54;;;;;;;5.22;4.45;;;;;;;;;;4915545;29;20064;-72
2022/09/08 11:40:40;;;;;;;8.68;4.85;;;;;;;;;;4916174;29;20057;-72
2022/09/08 11:43:25;;;;;;;6.15;3.97;;;;;;;;;;4916845;29;20171;-72
2022/09/08 11:46:09;;;;;;;8.80;4.55;;;;;;;;;;4904820;29;20089;-71
2022/09/08 11:48:38;;;;;;;6.75;4.57;;;;;;;;;;4915554;29;20059;-72
2022/09/08 11:51:07;;;;;;;6.75;3.80;;;;;;;;;;4910553;29;20081;-70
2022/09/08 11:53:57;;;;;;;5.65;4.25;;;;;;;;;;4914260;29;20093;-72
2022/09/08 11:57:10;;;;;;;7.82;4.20;;;;;;;;;;4916187;29;20112;-71
2022/09/08 11:59:55;;;;;;;8.52;3.63;;;;;;;;;;4905197;29;20060;-72
2022/09/08 12:02:39;;;;;;;5.57;3.00;;;;;;;;;;4899603;29;20484;-72
2022/09/08 12:05:17;;;;;;;7.82;2.83;;;;;;;;;;4898191;29;20113;-73
2022/09/08 12:08:06;;;;;;;4.28;2.70;;;;;;;;;;4916022;29;20061;-70
2022/09/08 12:10:50;;;;;;;5.82;3.00;;;;;;;;;;4916189;29;20575;-72
2022/09/08 12:13:28;;;;;;;9.55;3.08;;;;;;;;;;4909708;29;20057;-71
2022/09/08 12:15:59;;;;;;;7.85;2.83;;;;;;;;;;4898500;29;20056;-71
2022/09/08 12:18:44;;;;;;;5.45;3.28;;;;;;;;;;4904255;29;20060;-71
2022/09/08 12:21:10;;;;;;;6.57;3.15;;;;;;;;;;4913405;29;20511;-72
2022/09/08 12:23:39;;;;;;;6.22;3.45;;;;;;;;;;4907491;29;20528;-72
2022/09/08 12:26:14;;;;;;;6.63;3.00;;;;;;;;;;4914130;29;20137;-72
2022/09/08 12:29:04;;;;;;;8.00;3.08;;;;;;;;;;4915042;29;20060;-71
2022/09/08 12:31:37;;;;;;;4.55;2.30;;;;;;;;;;4912995;29;20052;-72
2022/09/08 12:34:09;;;;;;;7.63;3.00;;;;;;;;;;4915371;29;20427;-72
2022/09/08 12:36:46;;;;;;;4.05;2.60;;;;;;;;;;4915971;29;20056;-71
2022/09/08 12:39:32;;;;;;;10.15;2.78;;;;;;;;;;4915878;29;20061;-73
2022/09/08 12:42:07;;;;;;;5.05;2.40;;;;;;;;;;4915476;29;20515;-72
2022/09/08 12:44:52;;;;;;;10.50;2.25;;;;;;;;;;4913117;29;20049;-71
2022/09/08 12:47:43;;;;;;;10.13;2.92;;;;;;;;;;4913714;29;20116;-72
2022/09/08 12:50:21;;;;;;;4.97;1.88;;;;;;;;;;4913747;29;20060;-72
2022/09/08 12:53:06;;;;;;;6.55;2.15;;;;;;;;;;4915176;29;20520;-74
2022/09/08 12:55:51;;;;;;;7.72;2.63;;;;;;;;;;4916307;29;20132;-71
2022/09/08 12:58:21;;;;;;;6.57;2.20;;;;;;;;;;4912018;29;20091;-72
2022/09/08 13:00:57;;;;;;;10.65;1.98;;;;;;;;;;4914252;29;20515;-72
2022/09/08 13:03:28;;;;;;;12.93;2.30;;;;;;;;;;4912836;29;20067;-72
2022/09/08 13:06:16;;;;;;;5.35;2.33;;;;;;;;;;4914414;29;20048;-71
2022/09/08 13:08:59;;;;;;;4.68;1.77;;;;;;;;;;4914304;29;20147;-70
2022/09/08 13:11:45;;;;;;;5.53;1.25;;;;;;;;;;4913607;29;20156;-71
2022/09/08 13:14:13;;;;;;;3.97;1.10;;;;;;;;;;4915738;29;20056;-71
2022/09/08 13:16:45;;;;;;;3.30;1.10;;;;;;;;;;4914324;29;20061;-70
2022/09/08 13:19:21;;;;;;;4.47;1.45;;;;;;;;;;4913611;29;20064;-70
2022/09/08 13:22:09;;;;;;;5.05;1.55;;;;;;;;;;4913943;29;20512;-73
2022/09/08 13:24:41;;;;;;;4.82;1.48;;;;;;;;;;4914811;29;20056;-72
2022/09/08 13:27:26;;;;;;;6.18;1.75;;;;;;;;;;4913640;29;20053;-73
2022/09/08 13:30:00;;;;;;;6.07;1.40;;;;;;;;;;4916091;29;20104;-73
2022/09/08 13:33:03;;;;;;;6.40;1.67;;;;;;;;;;4911463;29;20056;-73
2022/09/08 13:35:39;;;;;;;6.10;1.17;;;;;;;;;;4917248;29;20116;-73
2022/09/08 13:38:14;;;;;;;6.47;1.35;;;;;;;;;;4918392;29;20488;-71
2022/09/08 13:40:59;;;;;;;3.10;1.25;;;;;;;;;;4914139;29;20065;-72
2022/09/08 13:43:44;;;;;;;7.03;1.58;;;;;;;;;;4903147;29;20065;-72
2022/09/08 13:46:11;;;;;;;6.10;1.63;;;;;;;;;;4916460;29;20057;-72
2022/09/08 13:48:58;;;;;;;2.88;1.27;;;;;;;;;;4914890;29;20061;-73
2022/09/08 13:51:34;;;;;;;6.18;1.58;;;;;;;;;;4908446;29;20108;-72
2022/09/08 13:54:19;;;;;;;8.15;1.70;;;;;;;;;;4902809;29;20148;-73
2022/09/08 13:56:45;;;;;;;;;;;;;;;;;;4917445;29;20109;-72
2022/09/08 13:59:26;;;;;;;7.07;2.20;;;;;;;;;;4912688;29;44990;-71
2022/09/08 14:01:52;;;;;;;6.20;1.35;;;;;;;;;;4915588;29;20551;-72
2022/09/08 14:04:22;;;;;;;3.60;1.17;;;;;;;;;;4918854;29;20053;-73
2022/09/08 14:06:59;;;;;;;3.33;1.42;;;;;;;;;;4917377;29;20062;-73
2022/09/08 14:09:27;;;;;;;3.90;1.13;;;;;;;;;;4907453;29;20108;-72
2022/09/08 14:11:56;;;;;;;6.50;1.38;;;;;;;;;;4918382;29;20061;-72
2022/09/08 14:14:28;;;;;;;3.40;1.60;;;;;;;;;;4915521;29;20112;-71
2022/09/08 14:17:13;;;;;;;4.88;1.10;;;;;;;;;;4910521;29;20532;-72
2022/09/08 14:19:49;;;;;;;9.13;1.85;;;;;;;;;;4916969;29;20140;-72
2022/09/08 14:22:16;;;;;;;4.63;1.30;;;;;;;;;;4916542;29;20060;-72
2022/09/08 14:24:46;;;;;;;4.93;1.40;;;;;;;;;;4917908;29;20104;-71
2022/09/08 14:27:23;;;;;;;3.97;1.60;;;;;;;;;;4918075;29;20060;-70
2022/09/08 14:30:02;;;;;;;5.35;1.50;;;;;;;;;;4915389;29;20049;-73
2022/09/08 14:32:48;;;;;;;4.38;1.40;;;;;;;;;;4915125;29;20061;-73
2022/09/08 14:35:24;;;;;;;5.97;1.33;;;;;;;;;;4915413;29;20052;-72
2022/09/08 14:37:54;;;;;;;3.13;1.10;;;;;;;;;;4916039;29;20060;-73
2022/09/08 14:40:23;;;;;;;4.70;1.50;;;;;;;;;;4914585;29;20065;-73
2022/09/08 14:43:02;;;;;;;2.35;1.30;;;;;;;;;;4916429;29;20112;-74
2022/09/08 14:45:35;;;;;;;3.17;1.27;;;;;;;;;;4914819;29;20075;-73
2022/09/08 14:48:01;;;;;;;4.00;1.23;;;;;;;;;;4915196;29;20605;-72
2022/09/08 14:50:47;;;;;;;6.68;1.88;;;;;;;;;;4917396;29;20067;-74
2022/09/08 14:53:23;;;;;;;5.72;1.35;;;;;;;;;;4914977;29;20489;-73
2022/09/08 14:56:05;;;;;;;4.32;1.48;;;;;;;;;;4914932;29;20053;-73
2022/09/08 14:58:34;;;;;;;4.05;1.23;;;;;;;;;;4915568;29;20453;-72
2022/09/08 15:01:17;;;;;;;3.85;1.50;;;;;;;;;;4916135;29;20131;-72
2022/09/08 15:03:49;;;;;;;2.83;1.23;;;;;;;;;;4917637;29;20572;-73
2022/09/08 15:06:33;;;;;;;3.33;1.27;;;;;;;;;;4916296;29;20135;-73
2022/09/08 15:09:32;;;;;;;4.57;1.48;;;;;;;;;;4912995;29;20491;-72
2022/09/08 15:12:12;;;;;;;3.50;1.40;;;;;;;;;;4914765;29;20561;-73
2022/09/08 15:14:53;;;;;;;4.28;1.30;;;;;;;;;;4915849;29;20065;-73
2022/09/08 15:17:31;;;;;;;6.55;1.63;;;;;;;;;;4916063;29;20115;-72
2022/09/08 15:20:09;;;;;;;4.85;1.58;;;;;;;;;;4914615;29;20056;-73
2022/09/08 15:22:42;;;;;;;6.57;1.45;;;;;;;;;;4912578;29;20052;-73
2022/09/08 15:25:31;;;;;;;3.45;1.20;;;;;;;;;;4910829;29;20060;-74
2022/09/08 15:28:00;;;;;;;6.88;1.63;;;;;;;;;;4917615;29;20049;-75
2022/09/08 15:30:32;;;;;;;16.25;1.98;;;;;;;;;;4914192;29;20565;-74
2022/09/08 15:33:07;;;;;;;7.05;1.40;;;;;;;;;;4909377;29;20060;-73
2022/09/08 15:35:55;;;;;;;1.53;1.20;;;;;;;;;;4913820;29;20053;-73
2022/09/08 15:38:49;;;;;;;3.08;1.27;;;;;;;;;;4908808;29;20501;-76
2022/09/08 15:41:21;;;;;;;1.33;1.17;;;;;;;;;;4918378;29;20049;-75
2022/09/08 15:43:54;;;;;;;5.18;1.65;;;;;;;;;;4910850;29;20057;-73
2022/09/08 15:46:41;;;;;;;5.60;1.52;;;;;;;;;;4908997;29;20060;-73
2022/09/08 15:49:22;;;;;;;5.68;1.40;;;;;;;;;;4907941;29;20576;-73
2022/09/08 15:52:07;;;;;;;3.75;1.52;;;;;;;;;;4908667;29;20125;-73
2022/09/08 15:54:34;;;;;;;4.80;1.80;;;;;;;;;;4912489;29;20425;-73
2022/09/08 15:57:05;;;;;;;3.20;1.38;;;;;;;;;;4921542;29;20116;-73
2022/09/08 15:59:34;;;;;;;3.70;1.52;;;;;;;;;;4921249;29;20052;-74
2022/09/08 16:02:30;;;;;;;4.95;1.40;;;;;;;;;;4923990;28;20495;-73
2022/09/08 16:05:14;;;;;;;4.10;1.33;;;;;;;;;;4909818;29;20063;-73
2022/09/08 16:07:40;;;;;;;3.97;1.00;;;;;;;;;;4928150;29;20056;-73
2022/09/08 16:10:12;;;;;;;3.20;1.30;;;;;;;;;;4917555;28;20195;-74
2022/09/08 16:12:58;;;;;;;1.52;0.93;;;;;;;;;;4916690;29;20113;-73
2022/09/08 16:15:42;;;;;;;4.25;1.23;;;;;;;;;;4915275;29;20150;-74
2022/09/08 16:18:24;;;;;;;4.53;1.20;;;;;;;;;;4915604;29;20386;-74
2022/09/08 16:21:11;;;;;;;2.20;0.82;;;;;;;;;;4913261;29;20056;-73
2022/09/08 16:23:50;;;;;;;3.08;0.90;;;;;;;;;;4919163;29;20111;-74
2022/09/08 16:26:35;;;;;;;1.83;0.77;;;;;;;;;;4915319;29;20452;-73
2022/09/08 16:29:11;;;;;;;3.78;1.10;;;;;;;;;;4922125;29;20575;-74
2022/09/08 16:31:46;;;;;;;1.75;1.10;;;;;;;;;;4911179;29;20072;-73
2022/09/08 16:34:12;;;;;;;;;;;;;;;;;;4911862;29;20060;-73
2022/09/08 16:36:43;;;;;;;4.10;0.98;;;;;;;;;;4913327;29;46784;-74
2022/09/08 16:39:19;;;;;;;3.25;1.05;;;;;;;;;;4914101;29;20143;-73
2022/09/08 16:41:53;;;;;;;2.55;0.80;;;;;;;;;;4910282;29;20056;-73
2022/09/08 16:44:27;;;;;;;0.85;0.63;;;;;;;;;;4910617;29;20117;-74
2022/09/08 16:46:58;;;;;;;3.28;0.80;;;;;;;;;;4915056;29;20398;-74
2022/09/08 16:49:42;;;;;;;0.73;0.35;;;;;;;;;;4902455;29;20116;-74
2022/09/08 16:52:18;;;;;;;3.92;0.85;;;;;;;;;;4899034;29;20049;-74
2022/09/08 16:54:54;;;;;;;1.75;0.90;;;;;;;;;;4913377;29;20088;-73
2022/09/08 16:57:26;;;;;;;1.80;0.65;;;;;;;;;;4907540;29;20064;-73
2022/09/08 16:59:58;;;;;;;0.80;0.60;;;;;;;;;;4901673;29;20083;-75
2022/09/08 17:02:44;;;;;;;2.17;0.75;;;;;;;;;;4920245;29;20068;-73
2022/09/08 17:05:29;;;;;;;1.13;0.80;;;;;;;;;;4911661;29;20425;-74
2022/09/08 17:08:17;;;;;;;2.92;1.08;;;;;;;;;;4910893;29;20055;-74
2022/09/08 17:10:55;;;;;;;3.10;1.13;;;;;;;;;;4906035;29;20145;-73
2022/09/08 17:13:25;;;;;;;1.35;0.85;;;;;;;;;;4909239;29;20094;-73
2022/09/08 17:16:10;;;;;;;1.52;0.70;;;;;;;;;;4915374;29;20088;-75
2022/09/08 17:18:41;;;;;;;1.35;0.65;;;;;;;;;;4917989;29;20755;-74
2022/09/08 17:21:16;;;;;;;2.47;0.57;;;;;;;;;;4915479;29;20049;-75
2022/09/08 17:23:49;;;;;;;1.08;0.68;;;;;;;;;;4914507;29;20105;-74
2022/09/08 17:26:33;;;;;;;2.75;0.80;;;;;;;;;;4915804;29;20064;-74
2022/09/08 17:29:07;;;;;;;2.90;1.20;;;;;;;;;;4911948;29;20060;-74
2022/09/08 17:31:36;;;;;;;0.73;0.63;;;;;;;;;;4910389;29;20057;-74
2022/09/08 17:34:25;;;;;;;2.85;1.33;;;;;;;;;;4915726;29;20485;-74
2022/09/08 17:36:59;;;;;;;2.53;1.02;;;;;;;;;;4914542;29;20128;-74
2022/09/08 17:39:35;;;;;;;3.38;0.93;;;;;;;;;;4918317;29;20060;-74
2022/09/08 17:42:08;;;;;;;4.57;0.93;;;;;;;;;;4915811;28;20053;-74
2022/09/08 17:44:57;;;;;;;2.60;0.90;;;;;;;;;;4915058;29;20056;-74
2022/09/08 17:47:26;;;;;;;2.97;0.98;;;;;;;;;;4908628;29;20124;-74
2022/09/08 17:49:57;;;;;;;1.88;1.08;;;;;;;;;;4897235;29;20566;-76
2022/09/08 17:52:34;;;;;;;2.35;1.02;;;;;;;;;;4910226;29;20057;-75
2022/09/08 17:55:21;;;;;;;3.95;1.08;;;;;;;;;;4914561;29;20519;-76
2022/09/08 17:57:48;;;;;;;1.73;0.80;;;;;;;;;;4914418;29;20052;-75
2022/09/08 18:00:14;;;;;;;2.58;1.38;;;;;;;;;;4914407;29;20056;-74
2022/09/08 18:02:53;;;;;;;3.50;1.08;;;;;;;;;;4926660;29;20150;-74
2022/09/08 18:05:22;;;;;;;4.25;1.25;;;;;;;;;;4913626;29;20060;-74
2022/09/08 18:07:50;;;;;;;3.55;1.23;;;;;;;;;;4909434;29;20056;-74
2022/09/08 18:10:18;;;;;;;2.15;0.82;;;;;;;;;;4914890;29;20104;-74
2022/09/08 18:12:46;;;;;;;1.67;0.90;;;;;;;;;;4914758;29;20056;-74
2022/09/08 18:15:34;;;;;;;1.92;1.10;;;;;;;;;;4910452;29;20148;-76
2022/09/08 18:18:24;;;;;;;2.80;1.30;;;;;;;;;;4915040;29;20057;-75
2022/09/08 18:20:55;;;;;;;3.22;1.20;;;;;;;;;;4903940;29;21595;-75
2022/09/08 18:23:32;;;;;;;4.10;1.10;;;;;;;;;;4915911;29;20115;-76
2022/09/08 18:26:17;;;;;;;2.55;0.93;;;;;;;;;;4915616;29;20064;-76
2022/09/08 18:29:02;;;;;;;3.10;1.40;;;;;;;;;;4909733;29;20109;-75
2022/09/08 18:31:36;;;;;;;2.27;1.03;;;;;;;;;;4915698;29;22169;-74
2022/09/08 18:34:15;;;;;;;4.23;1.50;;;;;;;;;;4916123;29;20884;-73
2022/09/08 18:36:59;;;;;;;2.50;1.40;;;;;;;;;;4915701;29;20057;-74
2022/09/08 18:39:29;;;;;;;4.55;1.45;;;;;;;;;;4915611;29;20085;-73
2022/09/08 18:42:05;;;;;;;2.13;1.13;;;;;;;;;;4918004;29;20053;-75
2022/09/08 18:44:32;;;;;;;2.10;1.20;;;;;;;;;;4917256;29;20053;-74
2022/09/08 18:47:19;;;;;;;3.58;1.35;;;;;;;;;;4912458;29;20063;-74
2022/09/08 18:49:50;;;;;;;2.67;1.40;;;;;;;;;;4916094;29;20056;-74
2022/09/08 18:52:20;;;;;;;3.53;1.05;;;;;;;;;;4917997;29;20556;-75
2022/09/08 18:54:52;;;;;;;4.07;1.40;;;;;;;;;;4916849;29;20064;-75
2022/09/08 18:57:24;;;;;;;2.40;1.05;;;;;;;;;;4917948;29;20061;-75
2022/09/08 18:59:54;;;;;;;4.88;1.40;;;;;;;;;;4918063;29;20052;-76
2022/09/08 19:02:37;;;;;;;2.63;1.00;;;;;;;;;;4917851;29;20056;-74
2022/09/08 19:05:06;;;;;;;5.15;1.80;;;;;;;;;;4905625;29;20143;-75
2022/09/08 19:07:37;;;;;;;3.00;1.20;;;;;;;;;;4917536;29;20061;-76
2022/09/08 19:10:05;;;;;;;5.80;1.58;;;;;;;;;;4917432;29;20057;-76
2022/09/08 19:12:33;;;;;;;2.35;1.10;;;;;;;;;;4917769;29;20068;-75
2022/09/08 19:15:11;;;;;;;3.30;1.30;;;;;;;;;;4903648;29;20065;-76
2022/09/08 19:17:57;;;;;;;4.28;1.70;;;;;;;;;;4909049;29;20108;-76
2022/09/08 19:20:25;;;;;;;2.65;1.35;;;;;;;;;;4916894;29;20136;-76
2022/09/08 19:23:03;;;;;;;3.67;1.33;;;;;;;;;;4917577;29;20539;-76
2022/09/08 19:25:30;;;;;;;1.98;1.42;;;;;;;;;;4917397;29;20063;-76
2022/09/08 19:28:06;;;;;;;5.15;1.90;;;;;;;;;;4918216;29;20052;-76
2022/09/08 19:30:34;;;;;;;5.85;2.08;;;;;;;;;;4916635;29;20112;-76
2022/09/08 19:33:08;;;;;;;3.95;1.40;;;;;;;;;;4910315;29;20068;-75
2022/09/08 19:35:35;;;;;;;5.93;1.73;;;;;;;;;;4916974;29;20067;-75
2022/09/08 19:38:07;;;;;;;2.60;1.40;;;;;;;;;;4913713;29;20053;-76
2022/09/08 19:40:37;;;;;;;4.68;1.75;;;;;;;;;;4912609;29;20053;-76
2022/09/08 19:43:19;;;;;;;7.82;1.70;;;;;;;;;;4914290;29;20060;-76
2022/09/08 19:45:48;;;;;;;3.63;1.70;;;;;;;;;;4917292;29;20064;-76
2022/09/08 19:48:26;;;;;;;2.33;1.50;;;;;;;;;;4917602;29;20057;-76
2022/09/08 19:51:03;;;;;;;3.22;1.95;;;;;;;;;;4917654;29;20052;-76
2022/09/08 19:53:32;;;;;;;2.67;1.52;;;;;;;;;;4911874;29;20056;-76
2022/09/08 19:56:02;;;;;;;3.03;1.65;;;;;;;;;;4916980;29;20088;-76
2022/09/08 19:58:32;;;;;;;2.75;1.30;;;;;;;;;;4915492;29;20057;-76
2022/09/08 20:01:02;;;;;;;2.78;1.63;;;;;;;;;;4917226;29;20514;-75
2022/09/08 20:03:34;;;;;;;5.13;1.73;;;;;;;;;;4917525;29;20539;-75
2022/09/08 20:06:18;;;;;;;2.70;1.80;;;;;;;;;;4917789;29;20060;-76
2022/09/08 20:08:46;;;;;;;5.28;1.67;;;;;;;;;;4913148;29;20056;-76
2022/09/08 20:11:32;;;;;;;1.63;1.30;;;;;;;;;;4924897;29;20113;-76
2022/09/08 20:14:11;;;;;;;3.85;1.80;;;;;;;;;;4914036;29;20473;-76
2022/09/08 20:16:39;;;;;;;2.53;1.60;;;;;;;;;;4912546;29;20060;-76
2022/09/08 20:19:11;;;;;;;4.63;1.70;;;;;;;;;;4921348;28;20065;-76
2022/09/08 20:21:48;;;;;;;3.92;1.90;;;;;;;;;;4917982;29;20513;-75
2022/09/08 20:24:29;;;;;;;5.55;1.90;;;;;;;;;;4917054;29;20052;-75
2022/09/08 20:27:02;;;;;;;1.65;1.55;;;;;;;;;;4908543;29;20059;-76
2022/09/08 20:29:38;;;;;;;3.70;1.98;;;;;;;;;;4917687;29;20052;-76
2022/09/08 20:32:05;;;;;;;3.00;1.77;;;;;;;;;;4901445;29;20064;-76
2022/09/08 20:34:50;;;;;;;4.32;1.20;;;;;;;;;;4918126;29;20064;-76
2022/09/08 20:37:26;;;;;;;5.47;1.80;;;;;;;;;;4917448;29;20639;-76
2022/09/08 20:40:08;;;;;;;4.90;1.55;;;;;;;;;;4919202;29;20056;-77
2022/09/08 20:42:44;;;;;;;4.25;1.88;;;;;;;;;;4916391;29;20065;-76
2022/09/08 20:45:15;;;;;;;3.05;1.40;;;;;;;;;;4910673;29;20057;-76
2022/09/08 20:48:00;;;;;;;2.15;1.70;;;;;;;;;;4913086;29;20116;-76
2022/09/08 20:50:39;;;;;;;1.50;1.38;;;;;;;;;;4917227;29;20061;-76
2022/09/08 20:53:25;;;;;;;2.38;1.48;;;;;;;;;;4913447;29;20064;-76
2022/09/08 20:55:54;;;;;;;;;;;;;;;;;;4906843;29;20061;-76
2022/09/08 20:58:21;;;;;;;2.40;1.65;;;;;;;;;;4915268;29;45333;-76
2022/09/08 21:00:48;;;;;;;4.82;1.63;;;;;;;;;;4917005;29;20116;-76
2022/09/08 21:03:23;;;;;;;1.40;1.30;;;;;;;;;;4917504;29;20049;-75
2022/09/08 21:05:50;;;;;;;3.55;1.48;;;;;;;;;;4917043;29;20064;-76
2022/09/08 21:08:19;;;;;;;3.25;1.75;;;;;;;;;;4915101;29;20113;-75
2022/09/08 21:10:55;;;;;;;4.35;1.60;;;;;;;;;;4915590;29;20057;-75
2022/09/08 21:13:22;;;;;;;;;;;;;;;;;;4913542;29;20056;-76
2022/09/08 21:15:51;;;;;;;3.63;1.63;;;;;;;;;;4914621;29;47158;-77
2022/09/08 21:18:21;;;;;;;2.35;1.20;;;;;;;;;;4915913;29;20128;-76
2022/09/08 21:20:51;;;;;;;2.35;1.77;;;;;;;;;;4916698;29;20056;-76
2022/09/08 21:23:20;;;;;;;2.53;1.80;;;;;;;;;;4913625;29;20113;-75
2022/09/08 21:25:52;;;;;;;5.97;1.80;;;;;;;;;;4916522;29;20112;-75
2022/09/08 21:28:21;;;;;;;2.42;1.45;;;;;;;;;;4920566;29;20093;-74
2022/09/08 21:30:51;;;;;;;2.97;1.40;;;;;;;;;;4908245;29;21128;-75
2022/09/08 21:33:41;;;;;;;4.93;1.25;;;;;;;;;;4915322;29;20147;-75
2022/09/08 21:36:08;;;;;;;5.57;1.35;;;;;;;;;;4909352;29;20505;-74
2022/09/08 21:38:41;;;;;;;1.80;1.15;;;;;;;;;;4914720;29;20104;-75
2022/09/08 21:41:25;;;;;;;3.22;1.38;;;;;;;;;;4915545;29;20124;-75
2022/09/08 21:43:53;;;;;;;2.35;1.30;;;;;;;;;;4914590;29;20065;-76
2022/09/08 21:46:19;;;;;;;3.75;1.33;;;;;;;;;;4906161;29;20067;-75
2022/09/08 21:48:47;;;;;;;3.05;1.20;;;;;;;;;;4916182;29;20061;-75
2022/09/08 21:51:28;;;;;;;3.13;1.63;;;;;;;;;;4909093;29;20549;-76
2022/09/08 21:53:56;;;;;;;2.45;1.67;;;;;;;;;;4915082;29;20060;-75
2022/09/08 21:56:30;;;;;;;2.08;1.80;;;;;;;;;;4917509;29;20343;-76
2022/09/08 21:59:13;;;;;;;1.85;1.52;;;;;;;;;;4918958;29;20546;-76
2022/09/08 22:01:49;;;;;;;2.15;1.60;;;;;;;;;;4919117;29;20496;-75
2022/09/08 22:04:21;;;;;;;1.92;1.55;;;;;;;;;;4919441;29;20463;-75
2022/09/08 22:06:54;;;;;;;4.20;2.25;;;;;;;;;;4918893;29;20531;-75
2022/09/08 22:09:21;;;;;;;1.73;1.63;;;;;;;;;;4919117;29;20093;-75
2022/09/08 22:11:50;;;;;;;3.88;2.33;;;;;;;;;;4918584;29;20141;-76
2022/09/08 22:14:25;;;;;;;4.35;2.10;;;;;;;;;;4917531;29;20060;-76
2022/09/08 22:16:54;;;;;;;5.22;2.33;;;;;;;;;;4918579;29;20056;-74
2022/09/08 22:19:39;;;;;;;4.15;2.50;;;;;;;;;;4918215;29;20049;-74
2022/09/08 22:22:05;;;;;;;3.30;1.92;;;;;;;;;;4918055;29;20068;-72
2022/09/08 22:24:47;;;;;;;3.35;2.70;;;;;;;;;;4917496;29;20112;-71
2022/09/08 22:27:32;;;;;;;5.10;2.78;;;;;;;;;;4917970;29;20524;-71
2022/09/08 22:30:00;;;;;;;;;;;;;;;;;;4918124;29;20577;-71
2022/09/08 22:32:44;;;;;;;3.42;2.58;;;;;;;;;;4916109;29;46064;-72
2022/09/08 22:35:10;;;;;;;4.68;2.67;;;;;;;;;;4917224;29;20057;-70
2022/09/08 22:37:57;;;;;;;2.75;2.17;;;;;;;;;;4916890;29;20067;-71
2022/09/08 22:40:38;;;;;;;5.20;2.50;;;;;;;;;;4915150;29;20085;-69
2022/09/08 22:43:24;;;;;;;2.90;2.33;;;;;;;;;;4914620;29;20393;-72
2022/09/08 22:45:51;;;;;;;4.97;2.30;;;;;;;;;;4914077;29;20060;-71
2022/09/08 22:48:28;;;;;;;4.43;1.70;;;;;;;;;;4915628;29;20105;-73
2022/09/08 22:50:54;;;;;;;3.97;1.50;;;;;;;;;;4918014;29;20057;-73
2022/09/08 22:53:21;;;;;;;3.78;1.75;;;;;;;;;;4929567;29;20052;-74
2022/09/08 22:55:53;;;;;;;2.58;1.60;;;;;;;;;;4922759;28;20060;-74
2022/09/08 22:58:30;;;;;;;2.85;0.98;;;;;;;;;;4917953;29;20531;-75
2022/09/08 23:01:00;;;;;;;3.05;1.30;;;;;;;;;;4917929;29;20053;-75
2022/09/08 23:03:47;;;;;;;1.48;1.38;;;;;;;;;;4909971;29;20064;-76
2022/09/08 23:06:22;;;;;;;4.32;1.50;;;;;;;;;;4901677;29;20496;-75
2022/09/08 23:08:54;;;;;;;1.10;1.00;;;;;;;;;;4898554;29;20056;-76
2022/09/08 23:11:25;;;;;;;2.40;1.33;;;;;;;;;;4909347;29;20100;-75
2022/09/08 23:14:03;;;;;;;3.83;1.45;;;;;;;;;;4899997;29;20117;-76
2022/09/08 23:16:44;;;;;;;5.15;1.85;;;;;;;;;;4913188;29;20057;-74
2022/09/08 23:19:13;;;;;;;4.70;1.38;;;;;;;;;;4911190;29;20057;-75
2022/09/08 23:21:47;;;;;;;1.65;1.40;;;;;;;;;;4917820;29;20053;-76
2022/09/08 23:24:22;;;;;;;4.60;1.40;;;;;;;;;;4917413;29;20105;-76
2022/09/08 23:26:48;;;;;;;;;;;;;;;;;;4916065;29;20060;-77
2022/09/08 23:29:14;;;;;;;0.98;0.95;;;;;;;;;;4916949;29;45756;-76
2022/09/08 23:31:47;;;;;;;2.35;1.15;;;;;;;;;;4917769;29;20093;-77
2022/09/08 23:34:31;;;;;;;4.38;1.08;;;;;;;;;;4917660;29;20099;-78
2022/09/08 23:37:01;;;;;;;1.35;1.10;;;;;;;;;;4916968;29;20060;-77
2022/09/08 23:39:33;;;;;;;2.25;1.10;;;;;;;;;;4917502;29;20061;-74
2022/09/08 23:42:00;;;;;;;1.20;1.10;;;;;;;;;;4916134;29;20052;-76
2022/09/08 23:44:29;;;;;;;3.08;0.70;;;;;;;;;;4917310;29;20113;-77
2022/09/08 23:47:00;;;;;;;3.08;1.05;;;;;;;;;;4917720;29;20120;-74
2022/09/08 23:49:27;;;;;;;0.77;0.77;;;;;;;;;;4912469;29;20104;-75
2022/09/08 23:51:56;;;;;;;0.90;0.80;;;;;;;;;;4917191;29;22433;-77
2022/09/08 23:54:24;;;;;;;3.28;0.90;;;;;;;;;;4916589;29;20052;-75
2022/09/08 23:56:52;;;;;;;2.47;0.98;;;;;;;;;;4915320;29;20061;-76
2022/09/08 23:59:18;;;;;;;0.77;0.77;;;;;;;;;;4917670;29;20060;-77
